Latest Weather Observations for Mildura

IDV60801

Issued at 9:31 am EDT Tuesday 31 March 2015 (issued every 30 minutes, with the page automatically refreshed every 10 minutes)

About weather observations | Map of weather stations | Latest weather observations for VIC | Other Formats
Station Details ID: 076031 Name: MILDURA AIRPORT Lat: -34.24 Lon: 142.09 Height: 50.0 m
Data from the previous 72 hours. | See also: Recent months at Mildura
Date/Time
EDT
Temp
°C
App
Temp
°C
Dew
Point
Rel
Hum
%
Delta-T
°C
Wind Press
QNH
hPa
Press
MSL
hPa
Rain
since 9 am
mm
Dir
 
Spd
km/h
Gust
km/h
Spd
kts
Gust
kts
31/09:30am 17.7 14.5 5.0 43 6.1 SE 11 15 6 8 1025.3 1025.1 0.0
31/08:30am 13.2 10.3 4.6 56 3.9 S 9 13 5 7 1024.7 1024.5 0.0
31/08:00am 11.7 8.4 4.4 61 3.3 SSW 11 13 6 7 1024.3 1024.1 0.0
31/07:30am 12.1 9.5 4.3 59 3.5 S 7 13 4 7 1023.8 1023.6 0.0
31/07:00am 12.0 9.5 4.7 61 3.3 SSE 7 9 4 5 1023.6 1023.4 0.0
31/06:30am 12.4 9.9 4.9 60 3.4 S 7 9 4 5 1023.5 1023.3 0.0
31/06:00am 13.2 10.7 4.6 56 3.9 S 7 9 4 5 1023.3 1023.1 0.0
31/05:30am 13.1 10.6 4.8 57 3.8 S 7 9 4 5 1023.1 1022.9 0.0
31/05:00am 13.8 11.3 4.7 54 4.2 SSE 7 9 4 5 1023.1 1022.9 0.0
31/04:30am 14.7 12.2 4.7 51 4.6 SSE 7 11 4 6 1023.1 1022.9 0.0
31/04:00am 15.3 12.5 5.2 51 4.8 S 9 13 5 7 1023.3 1023.1 0.0
31/03:30am 15.2 12.5 5.4 52 4.7 S 9 13 5 7 1023.5 1023.3 0.0
31/03:00am 15.1 12.3 5.0 51 4.7 SSW 9 11 5 6 1023.7 1023.5 0.0
31/02:30am 15.8 12.6 5.1 49 5.1 SSW 11 15 6 8 1023.8 1023.6 0.0
31/02:00am 16.2 13.8 5.2 48 5.2 S 7 11 4 6 1023.6 1023.4 0.0
31/01:30am 16.6 13.8 5.3 47 5.4 S 9 11 5 6 1023.6 1023.4 0.0
31/01:00am 17.2 14.4 5.2 45 5.7 SSW 9 11 5 6 1023.7 1023.5 0.0
31/12:30am 17.4 15.0 5.4 45 5.8 S 7 9 4 5 1023.8 1023.6 0.0
31/12:00am 17.8 15.4 5.1 43 6.1 S 7 9 4 5 1023.9 1023.7 0.0
 
Date/Time
EDT
Temp
°C
App
Temp
°C
Dew
Point
Rel
Hum
%
Delta-T
°C
Wind Press
QNH
hPa
Press
MSL
hPa
Rain
since 9 am
mm
Dir
 
Spd
km/h
Gust
km/h
Spd
kts
Gust
kts
30/11:30pm 19.0 16.5 4.7 39 6.9 S 7 9 4 5 1024.1 1023.9 0.0
30/11:00pm 19.2 16.2 4.2 37 7.1 SSE 9 9 5 5 1024.0 1023.8 0.0
30/10:30pm 19.5 16.8 3.6 35 7.5 S 7 9 4 5 1023.9 1023.7 0.0
30/10:00pm 20.7 17.7 3.9 33 8.0 SSW 9 13 5 7 1023.7 1023.5 0.0
30/09:30pm 19.7 17.0 3.8 35 7.6 WSW 7 9 4 5 1023.4 1023.2 0.0
30/09:00pm 20.6 19.2 3.8 33 8.0 CALM 0 0 0 0 1023.2 1023.0 0.0
30/08:30pm 21.8 20.4 3.5 30 8.8 CALM 0 0 0 0 1023.0 1022.8 0.0
30/08:00pm 23.3 22.0 4.3 29 9.3 CALM 0 0 0 0 1022.7 1022.5 0.0
30/07:30pm 25.9 24.4 3.2 23 11.1 CALM 0 0 0 0 1022.4 1022.2 0.0
30/07:00pm 27.4 24.6 3.2 21 12.0 ENE 7 11 4 6 1022.1 1021.9 0.0
30/06:30pm 27.9 25.1 2.9 20 12.4 E 7 13 4 7 1021.9 1021.7 0.0
30/06:00pm 28.7 26.0 2.8 19 12.9 SSW 6 15 3 8 1021.7 1021.5 0.0
30/05:30pm 28.6 25.7 2.7 19 12.9 NW 7 11 4 6 1021.6 1021.4 0.0
30/05:00pm 28.5 25.6 2.7 19 12.8 ESE 7 11 4 6 1021.6 1021.4 0.0
30/04:30pm 27.7 24.8 2.7 20 12.3 NNE 7 15 4 8 1021.8 1021.6 0.0
30/04:00pm 28.3 25.4 2.5 19 12.7 S 7 15 4 8 1021.9 1021.7 0.0
30/03:30pm 28.6 25.9 2.7 19 12.9 NW 6 13 3 7 1022.2 1022.0 0.0
30/03:00pm 28.0 24.4 3.0 20 12.4 WNW 11 20 6 11 1022.4 1022.2 0.0
30/02:30pm 27.2 23.6 3.0 21 12.0 W 11 15 6 8 1022.7 1022.5 0.0
30/02:00pm 27.4 24.7 3.8 22 11.8 NNW 7 15 4 8 1023.1 1022.9 0.0
30/01:30pm 26.5 23.0 3.7 23 11.4 WNW 11 19 6 10 1023.5 1023.3 0.0
30/01:00pm 26.8 23.5 4.6 24 11.2 NW 11 15 6 8 1023.9 1023.7 0.0
30/12:30pm 26.5 23.5 4.3 24 11.2 ENE 9 13 5 7 1024.1 1023.9 0.0
30/12:00pm 25.4 23.6 5.6 28 10.1 NNW 4 9 2 5 1024.4 1024.2 0.0
30/11:30am 24.1 21.8 5.0 29 9.6 ESE 6 9 3 5 1024.8 1024.6 0.0
30/11:00am 22.9 20.7 5.3 32 8.8 NNE 6 9 3 5 1024.9 1024.7 0.0
30/10:30am 21.1 19.3 5.5 36 7.8 WNW 4 9 2 5 1024.8 1024.6 0.0
30/10:00am 18.8 16.7 6.0 43 6.3 W 6 9 3 5 1024.7 1024.5 0.0
30/09:30am 17.0 14.7 5.9 48 5.4 WSW 7 11 4 6 1024.5 1024.3 0.0
30/09:00am 15.0 14.0 5.8 54 4.4 CALM 0 0 0 0 1024.0 1023.8 0.0
30/08:30am 11.3 10.1 4.5 63 3.1 CALM 0 0 0 0 1023.7 1023.5 0.0
30/08:00am 10.6 9.5 4.9 68 2.6 CALM 0 0 0 0 1023.4 1023.2 0.0
30/07:30am 10.2 9.1 5.2 71 2.3 CALM 0 0 0 0 1023.3 1023.1 0.0
30/07:00am 10.0 8.0 4.6 69 2.4 S 4 9 2 5 1023.1 1022.9 0.0
30/06:30am 10.3 9.0 4.2 66 2.7 CALM 0 0 0 0 1022.8 1022.6 0.0
30/06:00am 11.1 10.0 5.0 66 2.8 CALM 0 0 0 0 1022.5 1022.3 0.0
30/05:30am 11.0 9.6 3.3 59 3.4 CALM 0 0 0 0 1022.4 1022.2 0.0
30/05:00am 11.7 9.2 3.7 58 3.5 NW 6 7 3 4 1022.5 1022.3 0.0
30/04:30am 12.1 10.8 4.1 58 3.6 CALM 0 0 0 0 1022.5 1022.3 0.0
30/04:00am 12.3 11.1 4.5 59 3.5 CALM 0 0 0 0 1022.7 1022.5 0.0
30/03:30am 13.3 10.4 4.5 55 4.0 SSW 9 11 5 6 1022.7 1022.5 0.0
30/03:00am 14.4 11.9 4.7 52 4.5 W 7 9 4 5 1022.8 1022.6 0.0
30/02:30am 15.3 12.8 4.9 50 4.9 NW 7 9 4 5 1022.7 1022.5 0.0
30/02:00am 14.7 12.5 5.5 54 4.3 N 6 7 3 4 1022.6 1022.4 0.0
30/01:30am 14.3 13.3 5.7 56 4.1 CALM 0 0 0 0 1022.6 1022.4 0.0
30/01:00am 15.2 13.3 4.9 50 4.8 N 4 6 2 3 1022.6 1022.4 0.0
30/12:30am 16.4 14.3 6.5 52 4.9 N 7 7 4 4 1022.7 1022.5 0.0
30/12:00am 16.9 14.9 6.1 49 5.3 N 6 7 3 4 1022.7 1022.5 0.0
 
Date/Time
EDT
Temp
°C
App
Temp
°C
Dew
Point
Rel
Hum
%
Delta-T
°C
Wind Press
QNH
hPa
Press
MSL
hPa
Rain
since 9 am
mm
Dir
 
Spd
km/h
Gust
km/h
Spd
kts
Gust
kts
29/11:30pm 18.6 16.3 5.5 42 6.4 N 7 9 4 5 1023.0 1022.8 0.0
29/11:00pm 18.6 16.5 6.8 46 5.9 N 7 7 4 4 1023.2 1023.0 0.0
29/10:30pm 19.0 17.5 8.6 51 5.4 N 6 7 3 4 1023.2 1023.0 0.0
29/10:00pm 19.4 17.2 5.5 40 6.8 N 6 9 3 5 1023.0 1022.8 0.0
29/09:30pm 20.9 18.5 4.5 34 8.0 N 6 9 3 5 1022.8 1022.6 0.0
29/09:00pm 21.0 20.0 5.4 36 7.7 CALM 0 0 0 0 1022.7 1022.5 0.0
29/08:30pm 21.2 20.2 5.5 36 7.8 CALM 0 0 0 0 1022.5 1022.3 0.0
29/08:20pm 21.3 20.1 4.8 34 8.1 CALM 0 0 0 0 1022.3 1022.1 0.0
29/08:03pm 22.0 20.7 4.1 31 8.7 CALM 0 0 0 0 1022.2 1022.0 0.0
29/08:00pm 22.2 20.8 3.8 30 8.9 CALM 0 0 0 0 1022.1 1021.9 0.0
29/07:30pm 23.4 22.1 3.9 28 9.6 CALM 0 0 0 0 1021.9 1021.7 0.0
29/07:00pm 24.2 21.7 4.0 27 9.9 NW 6 9 3 5 1021.7 1021.5 0.0
29/06:30pm 24.6 21.5 3.8 26 10.3 NW 9 13 5 7 1021.5 1021.3 0.0
29/06:00pm 24.6 21.5 3.8 26 10.2 NNW 9 13 5 7 1021.3 1021.1 0.0
29/05:30pm 24.9 21.6 4.6 27 10.2 N 11 20 6 11 1021.2 1021.0 0.0
29/05:00pm 24.6 21.0 4.9 28 9.9 N 13 20 7 11 1021.2 1021.0 0.0
29/04:30pm 24.6 21.9 5.4 29 9.8 NW 9 19 5 10 1021.2 1021.0 0.0
29/04:00pm 24.8 21.2 5.1 28 9.9 NNW 13 19 7 10 1021.5 1021.3 0.0
29/03:30pm 24.2 20.6 5.1 29 9.6 NW 13 19 7 10 1021.8 1021.6 0.0
29/03:00pm 24.4 21.2 5.2 29 9.7 NNW 11 17 6 9 1021.9 1021.7 0.0
29/02:30pm 24.1 21.3 5.0 29 9.6 N 9 17 5 9 1022.4 1022.2 0.0
29/02:00pm 24.5 21.3 5.3 29 9.7 NNW 11 17 6 9 1023.0 1022.8 0.0
29/01:30pm 23.8 21.5 5.7 31 9.2 WNW 7 15 4 8 1023.2 1023.0 0.0
29/01:00pm 24.0 21.8 5.4 30 9.4 NE 6 11 3 6 1023.5 1023.3 0.0
29/12:30pm 23.2 20.5 5.6 32 8.9 NNW 9 13 5 7 1024.0 1023.8 0.0
29/12:00pm 23.0 20.5 5.0 31 8.9 NNW 7 13 4 7 1024.2 1024.0 0.0
29/11:30am 22.6 20.4 5.1 32 8.7 W 6 13 3 7 1024.3 1024.1 0.0
29/11:00am 22.1 19.8 5.5 34 8.3 WSW 7 11 4 6 1024.5 1024.3 0.0
29/10:30am 21.0 18.8 5.4 36 7.7 SE 6 11 3 6 1023.9 1023.7 0.0
29/10:00am 20.7 19.0 5.9 38 7.4 SE 4 7 2 4 1024.1 1023.9 0.0
29/09:30am 19.1 18.4 6.9 45 6.2 CALM 0 0 0 0 1023.8 1023.6 0.0
29/09:00am 16.5 16.0 7.7 56 4.4 CALM 0 0 0 0 1023.4 1023.2 0.0
29/08:30am 14.7 14.2 8.0 64 3.4 CALM 0 0 0 0 1023.0 1022.8 0.0
29/08:00am 14.0 13.5 7.8 66 3.1 CALM 0 0 0 0 1022.5 1022.3 0.0
29/07:30am 13.7 13.2 7.7 67 3.0 CALM 0 0 0 0 1022.1 1021.9 0.0
29/07:00am 14.6 14.2 8.3 66 3.2 CALM 0 0 0 0 1021.7 1021.5 0.0
29/06:30am 14.2 13.8 8.2 67 3.0 CALM 0 0 0 0 1021.4 1021.2 0.0
29/06:00am 13.7 13.1 7.2 65 3.2 CALM 0 0 0 0 1021.2 1021.0 0.0
29/05:30am 14.1 13.8 8.5 69 2.8 CALM 0 0 0 0 1021.2 1021.0 0.0
29/05:00am 14.0 13.6 8.4 69 2.8 CALM 0 0 0 0 1021.3 1021.1 0.0
29/04:30am 14.3 13.8 8.0 66 3.1 CALM 0 0 0 0 1021.2 1021.0 0.0
29/04:00am 14.6 14.2 8.3 66 3.2 CALM 0 0 0 0 1021.2 1021.0 0.0
29/03:30am 14.8 14.6 9.0 68 3.0 CALM 0 0 0 0 1021.4 1021.2 0.0
29/03:00am 14.9 14.4 7.7 62 3.6 CALM 0 0 0 0 1021.6 1021.4 0.0
29/02:30am 15.0 14.6 8.3 64 3.4 CALM 0 0 0 0 1021.7 1021.5 0.0
29/02:00am 14.8 13.7 6.9 59 3.9 ENE 2 9 1 5 1021.5 1021.3 0.0
29/01:30am 15.5 14.9 7.3 58 4.1 CALM 0 0 0 0 1021.8 1021.6 0.0
29/01:00am 16.0 14.8 6.4 53 4.7 NNW 2 6 1 3 1022.0 1021.8 0.0
29/12:30am 16.7 15.9 6.5 51 5.0 CALM 0 4 0 2 1022.3 1022.1 0.0
29/12:05am 17.3 15.4 6.8 50 5.2 NW 6 7 3 4 1022.5 1022.3 0.0
29/12:00am 17.3 15.4 6.8 50 5.2 WNW 6 7 3 4 1022.5 1022.3 0.0
 
Date/Time
EDT
Temp
°C
App
Temp
°C
Dew
Point
Rel
Hum
%
Delta-T
°C
Wind Press
QNH
hPa
Press
MSL
hPa
Rain
since 9 am
mm
Dir
 
Spd
km/h
Gust
km/h
Spd
kts
Gust
kts
28/11:30pm 16.8 16.0 6.6 51 5.0 CALM 0 0 0 0 1022.6 1022.4 0.0
28/11:02pm 16.7 15.9 6.5 51 5.0 CALM 0 0 0 0 1022.4 1022.2 0.0
28/11:00pm 16.9 16.3 7.5 54 4.7 CALM 0 0 0 0 1022.4 1022.2 0.0
28/10:30pm 17.4 16.8 7.2 51 5.1 CALM 0 0 0 0 1022.3 1022.1 0.0
28/10:00pm 18.2 17.2 5.8 44 6.1 CALM 0 0 0 0 1022.3 1022.1 0.0
28/09:30pm 18.1 17.3 6.3 46 5.8 CALM 0 0 0 0 1022.4 1022.2 0.0
28/09:00pm 19.1 18.3 6.6 44 6.2 CALM 0 0 0 0 1022.1 1021.9 0.0
28/08:30pm 19.1 18.2 5.9 42 6.5 CALM 0 0 0 0 1021.9 1021.7 0.0
28/08:00pm 20.2 18.6 6.2 40 7.0 NNW 4 6 2 3 1021.7 1021.5 0.0
28/07:30pm 21.1 19.0 5.9 37 7.6 NNW 6 9 3 5 1021.7 1021.5 0.0
28/07:00pm 21.5 18.8 5.8 36 7.8 NNW 9 11 5 6 1021.6 1021.4 0.0
28/06:30pm 21.8 19.5 5.7 35 8.1 NNE 7 13 4 7 1021.5 1021.3 0.0
28/06:00pm 22.1 20.0 5.9 35 8.1 NNW 6 9 3 5 1021.5 1021.3 0.0
28/05:30pm 22.6 20.4 6.0 34 8.4 NNW 7 13 4 7 1021.6 1021.4 0.0
28/05:00pm 22.8 20.7 5.7 33 8.6 SSW 6 9 3 5 1021.8 1021.6 0.0
28/04:30pm 23.0 20.8 5.4 32 8.8 WNW 6 13 3 7 1022.0 1021.8 0.0
28/04:00pm 22.2 19.1 5.6 34 8.3 N 11 20 6 11 1022.5 1022.3 0.0
28/03:30pm 21.7 18.7 6.0 36 7.9 NNE 11 17 6 9 1022.8 1022.6 0.0
28/03:00pm 21.3 18.6 5.6 36 7.8 W 9 17 5 9 1023.2 1023.0 0.0
28/02:30pm 21.7 19.1 6.0 36 7.9 ESE 9 15 5 8 1023.5 1023.3 0.0
28/02:00pm 20.9 18.3 6.1 38 7.4 NE 9 15 5 8 1024.0 1023.8 0.0
28/01:30pm 20.5 17.9 6.1 39 7.2 NE 9 15 5 8 1024.4 1024.2 0.0
28/01:00pm 20.0 17.4 6.0 40 6.9 E 9 13 5 7 1025.1 1024.9 0.0
28/12:30pm 19.2 16.6 6.3 43 6.4 NW 9 13 5 7 1025.4 1025.2 0.0
28/12:00pm 20.1 18.4 7.5 44 6.4 NE 6 9 3 5 1025.9 1025.7 0.0
28/11:30am 18.5 16.0 6.7 46 5.9 ENE 9 17 5 9 1026.0 1025.8 0.0
28/11:00am 18.3 15.9 7.1 48 5.6 E 9 13 5 7 1026.4 1026.2 0.0
28/10:30am 17.4 14.8 7.7 53 4.9 ENE 11 17 6 9 1026.7 1026.5 0.0
28/10:00am 15.8 13.1 7.3 57 4.2 ESE 11 17 6 9 1026.7 1026.5 0.0

Other Formats:

Comma delimited format used in spreadsheet applications
http://www.bom.gov.au/fwo/IDV60801/IDV60801.94693.axf

JavaScript Object Notation format (JSON) in row-major order
http://www.bom.gov.au/fwo/IDV60801/IDV60801.94693.json